Felts Field
KSFF : now visible

Airfield :











YOU CAN JOIN US ON...

 
LOGIN :

Register | Disclaimer

   EN    FR    IT 

 









Legend :    VFR   Marginal VFR   IFR   Intensive IFR   Very Intensive IFR
Visi :
Ceiling :
>= 8 km
>= 3000ft
5 to 8 km
1000 to 3000 ft
1500m to 5 km
500 to 1000 ft
800 to 1500m
200 to 500 ft
< 800m
< 200 ft
Symbols :   Thunderstorms  Fog  Heavy snow  Heavy precipitations  Wind > 20 kt






- Airport Elevation : 1953 ft


KSFF - Felts Field

CURRENT METAR :
  • 060453Z AUTO 05004KT 10SM CLR 16/08 A3019 RMK AO2 SLP218 T01610078

EXPIRED METARs :
  • 060353Z AUTO 07003KT 10SM CLR 15/08 A3018 RMK AO2 SLP216 T01500078
  • 060253Z 03003KT 10SM CLR 16/09 A3016 RMK AO2 SLP213 T01560089 53001
  • 060153Z 00000KT 10SM CLR 19/07 A3016 RMK AO2 SLP208 T01890072

TAF KSFF
Valid from the 06 at 00:00 until the 07 at 00:00 UTC


052332Z 0600/0624 VRB03KT P6SM SCT250
KZSE FIR / North America



MET'MAP, your aeronautical weather chart ! - Copyright ORBIFLY December 2007 - Disclaimer

ORBIFLY MET'MAP TEAM :

Programming & Development : Alexandra Zaïnal
Original concept : Baudouin d'Aumeries
Technical & hardware support : Manuel Goepfert
Assistance : Marc-Olivier Méhu




SOURCES & CREDITS :

   NOAA       Earth
Advisory